Sea-land Charger — WDB9948 — position and weather

sailwx.info

Track history (hours):
 
Tides and Currents Weather Stations Pressure Air Temp Water Temp Dewpoint Dewpoint Depression Visibility Wind Speed Wind Dir Waves Ship Positions

Sea-land Charger

Owner: MAERSK LINE, LIMITED, NORFOLK, VA. More information available from US FCC via Universal Licensing System.

Last reported at 2015-Apr-19 10:33 UTC. Time now 2015-Apr-19 10:58 UTC.
Position N 31°13' E 032°21'.

Type: Cargo ship. MMSI: 303279000.

Date/timePositionNaut miles runAvg speedWind from/ knotsBaromVisibWave heightAir tempDewpointWater temp
2015-Apr-19 10:33N 31°13' E 032°21'4 4.0
2015-Apr-19 09:33N 31°17' E 032°22'6 6.0
2015-Apr-19 08:33N 31°23' E 032°23'4 1.3
2015-Apr-19 05:14N 31°26' E 032°20'0 0.0
2015-Apr-19 04:29N 31°26' E 032°20'0 0.0
2015-Apr-19 02:29N 31°26' E 032°20'0 0.1
2015-Apr-19 00:32N 31°26' E 032°20'1510.9
2015-Apr-18 23:09N 31°37' E 032°07'4216.4
2015-Apr-18 20:33N 32°06' E 031°31'2118.9
2015-Apr-18 19:28N 32°21' E 031°15'3619.0
2015-Apr-18 17:33N 32°49' E 030°47'33617.4
2015-Apr-17 22:16N 36°58' E 026°12'2715.6
2015-Apr-17 20:33N 37°16' E 025°47'1615.6
2015-Apr-17 19:33N 37°32' E 025°46'23913.3
2015-Apr-17 01:33N 40°53' E 028°33'7 0.6
2015-Apr-16 13:13N 40°58' E 028°41'0 0.0
2015-Apr-16 12:31N 40°58' E 028°41'0 0.0
2015-Apr-16 11:31N 40°58' E 028°41'2 0.1
2015-Apr-15 07:08N 40°56' E 028°40'4 6.1
2015-Apr-15 06:33N 40°55' E 028°44'1312.3
2015-Apr-15 05:30N 41°01' E 028°60'26 0.9
2015-Apr-14 00:06N 41°26' E 029°01'272 6.4
2015-Apr-12 05:34N 43°60' E 034°07'2221.6
2015-Apr-12 04:33N 43°60' E 034°37'2121.4
2015-Apr-12 03:33N 44°00' E 035°07'2221.6
2015-Apr-12 02:33N 44°00' E 035°37'2221.6
2015-Apr-12 01:33N 44°00' E 036°07'2121.1
2015-Apr-12 00:33N 44°08' E 036°34'2221.8
2015-Apr-11 23:33N 44°17' E 037°02'2321.9
2015-Apr-11 22:29N 44°27' E 037°31'1718.2
2015-Apr-11 21:33N 44°38' E 037°50'6 5.9
2015-Apr-11 20:33N 44°44' E 037°47'0 0.1
2015-Apr-11 19:31N 44°44' E 037°47'0 0.0
2015-Apr-11 18:31N 44°44' E 037°47'0 0.0
2015-Apr-11 17:25N 44°44' E 037°47'0 0.0
2015-Apr-11 16:31N 44°44' E 037°47'0 0.0
2015-Apr-11 15:31N 44°44' E 037°47'0 0.0
2015-Apr-11 14:31N 44°44' E 037°47'0 0.0
2015-Apr-11 13:31N 44°44' E 037°47'0 0.0
2015-Apr-11 12:31N 44°44' E 037°47'0 0.0
2015-Apr-11 11:28N 44°44' E 037°47'0 0.0
2015-Apr-11 10:31N 44°44' E 037°47'0 0.0
2015-Apr-11 09:31N 44°44' E 037°47'0 0.0
2015-Apr-11 08:31N 44°44' E 037°47'0 0.0
2015-Apr-11 07:31N 44°44' E 037°47'0 0.0
2015-Apr-11 06:31N 44°44' E 037°47'0 0.0
2015-Apr-11 05:31N 44°44' E 037°47'0 0.0
2015-Apr-11 04:31N 44°44' E 037°47'0 0.0
2015-Apr-11 03:31N 44°44' E 037°47'0 0.0
2015-Apr-11 02:31N 44°44' E 037°47'0 0.0
2015-Apr-11 01:31N 44°44' E 037°47'0 0.0
2015-Apr-11 00:31N 44°44' E 037°47'0 0.0
2015-Apr-10 23:28N 44°44' E 037°47'0 0.0
2015-Apr-10 22:31N 44°44' E 037°47'0 0.0
2015-Apr-10 21:31N 44°44' E 037°47'0 0.4
2015-Apr-10 20:33N 44°44' E 037°48'6 5.6
2015-Apr-10 19:33N 44°39' E 037°51'2 1.6
2015-Apr-10 18:33N 44°37' E 037°52'2 1.9
2015-Apr-10 17:33N 44°35' E 037°53'0 0.0
2015-Apr-10 16:33N 44°35' E 037°53'0 0.1
2015-Apr-10 15:33N 44°35' E 037°53'0 0.0
2015-Apr-10 14:33N 44°35' E 037°53'0 0.1
2015-Apr-10 13:33N 44°35' E 037°54'1 0.7
2015-Apr-10 12:29N 44°35' E 037°53'0 0.0
2015-Apr-10 11:32N 44°35' E 037°53'0 0.0
2015-Apr-10 10:32N 44°35' E 037°53'0 0.0
2015-Apr-10 09:32N 44°35' E 037°53'0 0.0
2015-Apr-10 08:32N 44°35' E 037°53'0 0.0
2015-Apr-10 07:32N 44°35' E 037°53'0 0.0
2015-Apr-10 06:32N 44°35' E 037°53'0 0.0
2015-Apr-10 05:32N 44°35' E 037°53'0 0.0
2015-Apr-10 04:32N 44°35' E 037°53'0 0.1
2015-Apr-10 03:32N 44°35' E 037°53'0 0.0
2015-Apr-10 02:32N 44°35' E 037°53'0 0.1
2015-Apr-10 01:26N 44°35' E 037°53'0 0.0
2015-Apr-10 00:32N 44°35' E 037°53'0 0.0
2015-Apr-09 23:32N 44°35' E 037°53'0 0.1
2015-Apr-09 22:29N 44°35' E 037°53'0 0.1
2015-Apr-09 21:32N 44°35' E 037°53'0 0.1
2015-Apr-09 20:32N 44°35' E 037°53'0 0.0
2015-Apr-09 19:32N 44°35' E 037°53'0 0.0
2015-Apr-09 18:32N 44°35' E 037°53'0 0.0
2015-Apr-09 17:32N 44°35' E 037°53'0 0.0
2015-Apr-09 16:29N 44°35' E 037°53'0 0.0
2015-Apr-09 15:32N 44°35' E 037°53'0 0.1
2015-Apr-09 14:32N 44°35' E 037°54'0 0.1
2015-Apr-09 13:32N 44°35' E 037°54'0 0.0
2015-Apr-09 12:32N 44°35' E 037°54'0 0.1
2015-Apr-09 11:33N 44°35' E 037°54'3 2.9
2015-Apr-09 10:33N 44°33' E 037°51'  
Track history (hours):
 
Tides and Currents Weather Stations Pressure Air Temp Water Temp Dewpoint Dewpoint Depression Visibility Wind Speed Wind Dir Waves Ship Positions

Sea-land Charger

Owner: MAERSK LINE, LIMITED, NORFOLK, VA. More information available from US FCC via Universal Licensing System.

Last reported at 2015-Apr-19 10:33 UTC. Time now 2015-Apr-19 10:58 UTC.
Position N 31°13' E 032°21'.

Type: Cargo ship. MMSI: 303279000.

Date/timePositionNaut miles runAvg speedWind from/ knotsBaromVisibWave heightAir tempDewpointWater temp
2015-Apr-19 10:33N 31°13' E 032°21'4 4.0
2015-Apr-19 09:33N 31°17' E 032°22'6 6.0
2015-Apr-19 08:33N 31°23' E 032°23'4 1.3
2015-Apr-19 05:14N 31°26' E 032°20'0 0.0
2015-Apr-19 04:29N 31°26' E 032°20'0 0.0
2015-Apr-19 02:29N 31°26' E 032°20'0 0.1
2015-Apr-19 00:32N 31°26' E 032°20'1510.9
2015-Apr-18 23:09N 31°37' E 032°07'4216.4
2015-Apr-18 20:33N 32°06' E 031°31'2118.9
2015-Apr-18 19:28N 32°21' E 031°15'3619.0
2015-Apr-18 17:33N 32°49' E 030°47'33617.4
2015-Apr-17 22:16N 36°58' E 026°12'2715.6
2015-Apr-17 20:33N 37°16' E 025°47'1615.6
2015-Apr-17 19:33N 37°32' E 025°46'23913.3
2015-Apr-17 01:33N 40°53' E 028°33'7 0.6
2015-Apr-16 13:13N 40°58' E 028°41'0 0.0
2015-Apr-16 12:31N 40°58' E 028°41'0 0.0
2015-Apr-16 11:31N 40°58' E 028°41'2 0.1
2015-Apr-15 07:08N 40°56' E 028°40'4 6.1
2015-Apr-15 06:33N 40°55' E 028°44'1312.3
2015-Apr-15 05:30N 41°01' E 028°60'26 0.9
2015-Apr-14 00:06N 41°26' E 029°01'272 6.4
2015-Apr-12 05:34N 43°60' E 034°07'2221.6
2015-Apr-12 04:33N 43°60' E 034°37'2121.4
2015-Apr-12 03:33N 44°00' E 035°07'2221.6
2015-Apr-12 02:33N 44°00' E 035°37'2221.6
2015-Apr-12 01:33N 44°00' E 036°07'2121.1
2015-Apr-12 00:33N 44°08' E 036°34'2221.8
2015-Apr-11 23:33N 44°17' E 037°02'2321.9
2015-Apr-11 22:29N 44°27' E 037°31'1718.2
2015-Apr-11 21:33N 44°38' E 037°50'6 5.9
2015-Apr-11 20:33N 44°44' E 037°47'0 0.1
2015-Apr-11 19:31N 44°44' E 037°47'0 0.0
2015-Apr-11 18:31N 44°44' E 037°47'0 0.0
2015-Apr-11 17:25N 44°44' E 037°47'0 0.0
2015-Apr-11 16:31N 44°44' E 037°47'0 0.0
2015-Apr-11 15:31N 44°44' E 037°47'0 0.0
2015-Apr-11 14:31N 44°44' E 037°47'0 0.0
2015-Apr-11 13:31N 44°44' E 037°47'0 0.0
2015-Apr-11 12:31N 44°44' E 037°47'0 0.0
2015-Apr-11 11:28N 44°44' E 037°47'0 0.0
2015-Apr-11 10:31N 44°44' E 037°47'0 0.0
2015-Apr-11 09:31N 44°44' E 037°47'0 0.0
2015-Apr-11 08:31N 44°44' E 037°47'0 0.0
2015-Apr-11 07:31N 44°44' E 037°47'0 0.0
2015-Apr-11 06:31N 44°44' E 037°47'0 0.0
2015-Apr-11 05:31N 44°44' E 037°47'0 0.0
2015-Apr-11 04:31N 44°44' E 037°47'0 0.0
2015-Apr-11 03:31N 44°44' E 037°47'0 0.0
2015-Apr-11 02:31N 44°44' E 037°47'0 0.0
2015-Apr-11 01:31N 44°44' E 037°47'0 0.0
2015-Apr-11 00:31N 44°44' E 037°47'0 0.0
2015-Apr-10 23:28N 44°44' E 037°47'0 0.0
2015-Apr-10 22:31N 44°44' E 037°47'0 0.0
2015-Apr-10 21:31N 44°44' E 037°47'0 0.4
2015-Apr-10 20:33N 44°44' E 037°48'6 5.6
2015-Apr-10 19:33N 44°39' E 037°51'2 1.6
2015-Apr-10 18:33N 44°37' E 037°52'2 1.9
2015-Apr-10 17:33N 44°35' E 037°53'0 0.0
2015-Apr-10 16:33N 44°35' E 037°53'0 0.1
2015-Apr-10 15:33N 44°35' E 037°53'0 0.0
2015-Apr-10 14:33N 44°35' E 037°53'0 0.1
2015-Apr-10 13:33N 44°35' E 037°54'1 0.7
2015-Apr-10 12:29N 44°35' E 037°53'0 0.0
2015-Apr-10 11:32N 44°35' E 037°53'0 0.0
2015-Apr-10 10:32N 44°35' E 037°53'0 0.0
2015-Apr-10 09:32N 44°35' E 037°53'0 0.0
2015-Apr-10 08:32N 44°35' E 037°53'0 0.0
2015-Apr-10 07:32N 44°35' E 037°53'0 0.0
2015-Apr-10 06:32N 44°35' E 037°53'0 0.0
2015-Apr-10 05:32N 44°35' E 037°53'0 0.0
2015-Apr-10 04:32N 44°35' E 037°53'0 0.1
2015-Apr-10 03:32N 44°35' E 037°53'0 0.0
2015-Apr-10 02:32N 44°35' E 037°53'0 0.1
2015-Apr-10 01:26N 44°35' E 037°53'0 0.0
2015-Apr-10 00:32N 44°35' E 037°53'0 0.0
2015-Apr-09 23:32N 44°35' E 037°53'0 0.1
2015-Apr-09 22:29N 44°35' E 037°53'0 0.1
2015-Apr-09 21:32N 44°35' E 037°53'0 0.1
2015-Apr-09 20:32N 44°35' E 037°53'0 0.0
2015-Apr-09 19:32N 44°35' E 037°53'0 0.0
2015-Apr-09 18:32N 44°35' E 037°53'0 0.0
2015-Apr-09 17:32N 44°35' E 037°53'0 0.0
2015-Apr-09 16:29N 44°35' E 037°53'0 0.0
2015-Apr-09 15:32N 44°35' E 037°53'0 0.1
2015-Apr-09 14:32N 44°35' E 037°54'0 0.1
2015-Apr-09 13:32N 44°35' E 037°54'0 0.0
2015-Apr-09 12:32N 44°35' E 037°54'0 0.1
2015-Apr-09 11:33N 44°35' E 037°54'3 2.9
2015-Apr-09 10:33N 44°33' E 037°51'  

Dump ship's entire track history